Time,TemperatureF,DewpointF,PressureIn,WindDirection,WindDirectionDegrees,WindSpeedMPH,WindSpeedGustMPH,Humidity,HourlyPrecipIn,Conditions,Clouds,dailyrainin,SoftwareType,DateUTC
2013-06-26 00:03:00,78.4,73.0,29.97,South,171,0.0,6.0,84,0.00,,,0.00,weatherlink.com 1.10,2013-06-26 05:03:00,
2013-06-26 00:18:00,78.1,73.0,29.97,SSE,165,2.0,4.0,84,0.00,,,0.00,weatherlink.com 1.10,2013-06-26 05:18:00,
2013-06-26 00:33:00,77.8,73.0,29.97,SSE,151,0.0,2.0,85,0.00,,,0.00,weatherlink.com 1.10,2013-06-26 05:33:00,
2013-06-26 00:48:00,77.4,73.0,29.97,SSE,151,0.0,2.0,86,0.00,,,0.00,weatherlink.com 1.10,2013-06-26 05:48:00,
2013-06-26 01:03:00,76.9,73.0,29.97,SSE,151,0.0,2.0,87,0.00,,,0.00,weatherlink.com 1.10,2013-06-26 06:03:00,
2013-06-26 01:18:00,76.5,72.0,29.97,SSE,151,0.0,2.0,87,0.00,,,0.00,weatherlink.com 1.10,2013-06-26 06:18:00,
2013-06-26 01:33:00,76.2,73.0,29.97,SSE,151,0.0,2.0,88,0.00,,,0.00,weatherlink.com 1.10,2013-06-26 06:33:00,
2013-06-26 01:48:00,75.8,72.0,29.97,SSE,151,0.0,2.0,89,0.00,,,0.00,weatherlink.com 1.10,2013-06-26 06:48:00,
2013-06-26 02:03:00,75.6,72.0,29.97,SSE,151,1.0,2.0,89,0.00,,,0.00,weatherlink.com 1.10,2013-06-26 07:03:00,
2013-06-26 02:18:00,75.3,72.0,29.97,East,88,0.0,1.0,90,0.00,,,0.00,weatherlink.com 1.10,2013-06-26 07:18:00,
2013-06-26 02:33:00,75.1,72.0,29.97,East,88,1.0,2.0,90,0.00,,,0.00,weatherlink.com 1.10,2013-06-26 07:33:00,
2013-06-26 03:03:00,74.7,72.0,29.97,East,88,0.0,1.0,91,0.00,,,0.00,weatherlink.com 1.10,2013-06-26 08:03:00,
2013-06-26 03:18:00,74.5,72.0,29.96,East,88,0.0,0.0,91,0.00,,,0.00,weatherlink.com 1.10,2013-06-26 08:18:00,
2013-06-26 03:33:00,74.3,72.0,29.96,East,88,0.0,1.0,91,0.00,,,0.00,weatherlink.com 1.10,2013-06-26 08:33:00,
2013-06-26 03:48:00,74.2,72.0,29.96,East,88,0.0,1.0,91,0.00,,,0.00,weatherlink.com 1.10,2013-06-26 08:48:00,
2013-06-26 04:03:00,74.2,72.0,29.96,East,88,0.0,2.0,91,0.00,,,0.00,weatherlink.com 1.10,2013-06-26 09:03:00,
2013-06-26 04:18:00,74.0,72.0,29.96,East,88,0.0,1.0,92,0.00,,,0.00,weatherlink.com 1.10,2013-06-26 09:18:00,
2013-06-26 04:33:00,74.0,72.0,29.96,East,88,0.0,1.0,92,0.00,,,0.00,weatherlink.com 1.10,2013-06-26 09:33:00,
2013-06-26 04:48:00,73.8,71.0,29.97,East,88,0.0,1.0,92,0.00,,,0.00,weatherlink.com 1.10,2013-06-26 09:48:00,
2013-06-26 05:03:00,73.8,71.0,29.97,East,88,0.0,2.0,92,0.00,,,0.00,weatherlink.com 1.10,2013-06-26 10:03:00,
2013-06-26 05:18:00,73.6,71.0,29.97,East,88,0.0,0.0,92,0.00,,,0.00,weatherlink.com 1.10,2013-06-26 10:18:00,
2013-06-26 05:33:00,73.5,71.0,29.97,East,88,0.0,1.0,92,0.00,,,0.00,weatherlink.com 1.10,2013-06-26 10:33:00,
2013-06-26 05:48:00,73.4,71.0,29.98,East,88,0.0,1.0,92,0.00,,,0.00,weatherlink.com 1.10,2013-06-26 10:48:00,
2013-06-26 06:03:00,73.4,71.0,29.98,East,88,0.0,1.0,92,0.00,,,0.00,weatherlink.com 1.10,2013-06-26 11:03:00,
2013-06-26 06:18:00,73.4,71.0,29.98,East,88,0.0,1.0,92,0.00,,,0.00,weatherlink.com 1.10,2013-06-26 11:18:00,
2013-06-26 06:33:00,73.5,71.0,29.99,East,88,0.0,1.0,92,0.00,,,0.00,weatherlink.com 1.10,2013-06-26 11:33:00,
2013-06-26 06:48:00,73.7,71.0,30.00,East,88,0.0,0.0,92,0.00,,,0.00,weatherlink.com 1.10,2013-06-26 11:48:00,
2013-06-26 07:04:00,74.0,72.0,30.01,East,88,0.0,1.0,93,0.00,,,0.00,weatherlink.com 1.10,2013-06-26 12:04:00,
2013-06-26 07:19:00,74.0,72.0,30.01,East,88,0.0,0.0,93,0.00,,,0.00,weatherlink.com 1.10,2013-06-26 12:19:00,
2013-06-26 07:34:00,74.3,72.0,30.02,East,88,0.0,0.0,92,0.00,,,0.00,weatherlink.com 1.10,2013-06-26 12:34:00,
2013-06-26 07:49:00,74.8,73.0,30.02,East,88,0.0,2.0,93,0.00,,,0.00,weatherlink.com 1.10,2013-06-26 12:49:00,
2013-06-26 08:04:00,75.3,73.0,30.02,East,88,0.0,2.0,93,0.00,,,0.00,weatherlink.com 1.10,2013-06-26 13:04:00,
2013-06-26 08:19:00,76.2,74.0,30.02,ESE,123,0.0,3.0,93,0.00,,,0.00,weatherlink.com 1.10,2013-06-26 13:19:00,
2013-06-26 08:34:00,77.5,75.0,30.03,ESE,106,0.0,2.0,92,0.00,,,0.00,weatherlink.com 1.10,2013-06-26 13:34:00,
2013-06-26 08:49:00,79.0,75.0,30.04,SSE,159,0.0,4.0,88,0.00,,,0.00,weatherlink.com 1.10,2013-06-26 13:49:00,
2013-06-26 09:04:00,81.2,76.0,30.03,SSE,163,0.0,4.0,84,0.00,,,0.00,weatherlink.com 1.10,2013-06-26 14:04:00,
2013-06-26 09:19:00,82.2,76.0,30.04,South,185,0.0,5.0,81,0.00,,,0.00,weatherlink.com 1.10,2013-06-26 14:19:00,
2013-06-26 09:34:00,84.0,76.0,30.04,SSE,165,3.0,4.0,76,0.00,,,0.00,weatherlink.com 1.10,2013-06-26 14:34:00,
2013-06-26 09:49:00,84.1,75.0,30.03,SW,224,1.0,4.0,75,0.00,,,0.00,weatherlink.com 1.10,2013-06-26 14:49:00,
2013-06-26 10:04:00,84.7,75.0,30.04,SSE,166,3.0,4.0,73,0.00,,,0.00,weatherlink.com 1.10,2013-06-26 15:04:00,
2013-06-26 10:19:00,86.5,75.0,30.04,SSW,197,3.0,6.0,68,0.00,,,0.00,weatherlink.com 1.10,2013-06-26 15:19:00,
2013-06-26 10:34:00,88.9,76.0,30.04,SSE,157,3.0,5.0,65,0.00,,,0.00,weatherlink.com 1.10,2013-06-26 15:34:00,
2013-06-26 10:49:00,90.4,75.0,30.04,South,173,2.0,4.0,61,0.00,,,0.00,weatherlink.com 1.10,2013-06-26 15:49:00,
2013-06-26 11:04:00,91.1,76.0,30.04,SSE,165,2.0,5.0,61,0.00,,,0.00,weatherlink.com 1.10,2013-06-26 16:04:00,
2013-06-26 11:19:00,91.7,75.0,30.04,SSE,157,0.0,3.0,59,0.00,,,0.00,weatherlink.com 1.10,2013-06-26 16:19:00,
2013-06-26 11:34:00,92.5,75.0,30.04,SE,143,2.0,4.0,56,0.00,,,0.00,weatherlink.com 1.10,2013-06-26 16:34:00,
2013-06-26 11:49:00,93.2,75.0,30.04,SE,143,2.0,5.0,55,0.00,,,0.00,weatherlink.com 1.10,2013-06-26 16:49:00,
2013-06-26 12:04:00,92.9,73.0,30.03,South,178,0.0,5.0,53,0.00,,,0.00,weatherlink.com 1.10,2013-06-26 17:04:00,
2013-06-26 12:19:00,93.6,74.0,30.03,SSE,162,3.0,4.0,53,0.00,,,0.00,weatherlink.com 1.10,2013-06-26 17:19:00,
2013-06-26 12:34:00,92.7,75.0,30.02,SE,137,3.0,3.0,56,0.00,,,0.00,weatherlink.com 1.10,2013-06-26 17:34:00,
2013-06-26 12:49:00,94.0,74.0,30.02,South,169,1.0,4.0,52,0.00,,,0.00,weatherlink.com 1.10,2013-06-26 17:49:00,
2013-06-26 13:04:00,93.2,74.0,30.02,SSE,167,3.0,3.0,53,0.00,,,0.00,weatherlink.com 1.10,2013-06-26 18:04:00,
2013-06-26 13:19:00,95.0,75.0,30.01,SE,133,2.0,5.0,53,0.00,,,0.00,weatherlink.com 1.10,2013-06-26 18:19:00,
2013-06-26 13:34:00,95.1,75.0,30.00,ESE,123,2.0,7.0,52,0.00,,,0.00,weatherlink.com 1.10,2013-06-26 18:34:00,
2013-06-26 13:49:00,94.7,73.0,30.00,SSE,153,0.0,5.0,50,0.00,,,0.00,weatherlink.com 1.10,2013-06-26 18:49:00,
2013-06-26 14:04:00,95.8,74.0,29.99,South,175,1.0,3.0,50,0.00,,,0.00,weatherlink.com 1.10,2013-06-26 19:04:00,
2013-06-26 14:20:00,95.8,77.0,29.99,East,98,5.0,5.0,54,0.00,,,0.00,weatherlink.com 1.10,2013-06-26 19:20:00,
2013-06-26 14:35:00,96.0,76.0,29.98,SSE,155,1.0,4.0,52,0.00,,,0.00,weatherlink.com 1.10,2013-06-26 19:35:00,
2013-06-26 14:50:00,96.2,76.0,29.98,SSE,152,4.0,4.0,52,0.00,,,0.00,weatherlink.com 1.10,2013-06-26 19:50:00,
2013-06-26 15:05:00,95.8,74.0,29.97,ESE,115,3.0,4.0,50,0.00,,,0.00,weatherlink.com 1.10,2013-06-26 20:05:00,
2013-06-26 15:20:00,96.4,75.0,29.97,SE,145,4.0,4.0,50,0.00,,,0.00,weatherlink.com 1.10,2013-06-26 20:20:00,
2013-06-26 15:35:00,96.8,75.0,29.96,SE,136,0.0,3.0,49,0.00,,,0.00,weatherlink.com 1.10,2013-06-26 20:35:00,
2013-06-26 15:50:00,96.6,75.0,29.96,SSE,154,3.0,4.0,50,0.00,,,0.00,weatherlink.com 1.10,2013-06-26 20:50:00,
2013-06-26 16:05:00,96.8,74.0,29.95,SSE,149,0.0,5.0,48,0.00,,,0.00,weatherlink.com 1.10,2013-06-26 21:05:00,
2013-06-26 16:20:00,96.9,73.0,29.95,South,187,0.0,4.0,47,0.00,,,0.00,weatherlink.com 1.10,2013-06-26 21:20:00,
2013-06-26 16:35:00,96.4,74.0,29.95,South,173,1.0,3.0,49,0.00,,,0.00,weatherlink.com 1.10,2013-06-26 21:35:00,
2013-06-26 16:50:00,96.2,74.0,29.95,SSE,161,0.0,4.0,49,0.00,,,0.00,weatherlink.com 1.10,2013-06-26 21:50:00,
2013-06-26 17:05:00,95.1,75.0,29.94,SSE,160,0.0,2.0,52,0.00,,,0.00,weatherlink.com 1.10,2013-06-26 22:05:00,
2013-06-26 17:20:00,95.3,74.0,29.94,SSE,163,1.0,4.0,50,0.00,,,0.00,weatherlink.com 1.10,2013-06-26 22:20:00,
2013-06-26 17:35:00,94.3,75.0,29.94,SE,140,1.0,7.0,53,0.00,,,0.00,weatherlink.com 1.10,2013-06-26 22:35:00,
2013-06-26 17:50:00,93.6,74.0,29.93,SE,128,1.0,2.0,53,0.00,,,0.00,weatherlink.com 1.10,2013-06-26 22:50:00,
2013-06-26 18:05:00,93.0,73.0,29.93,ESE,104,1.0,3.0,53,0.00,,,0.00,weatherlink.com 1.10,2013-06-26 23:05:00,
2013-06-26 18:20:00,92.4,73.0,29.93,SSE,149,0.0,4.0,54,0.00,,,0.00,weatherlink.com 1.10,2013-06-26 23:20:00,
2013-06-26 18:35:00,92.0,74.0,29.93,SSE,151,0.0,1.0,56,0.00,,,0.00,weatherlink.com 1.10,2013-06-26 23:35:00,
2013-06-26 18:50:00,91.3,74.0,29.93,SSE,151,0.0,1.0,58,0.00,,,0.00,weatherlink.com 1.10,2013-06-26 23:50:00,
2013-06-26 19:05:00,90.7,74.0,29.92,SSE,151,0.0,1.0,58,0.00,,,0.00,weatherlink.com 1.10,2013-06-27 00:05:00,
2013-06-26 19:20:00,89.8,74.0,29.92,SE,128,0.0,4.0,60,0.00,,,0.00,weatherlink.com 1.10,2013-06-27 00:20:00,
2013-06-26 19:35:00,88.9,73.0,29.92,SE,129,0.0,4.0,60,0.00,,,0.00,weatherlink.com 1.10,2013-06-27 00:35:00,
2013-06-26 19:50:00,88.1,73.0,29.92,SE,140,1.0,3.0,61,0.00,,,0.00,weatherlink.com 1.10,2013-06-27 00:50:00,
2013-06-26 20:05:00,87.3,73.0,29.92,SE,140,0.0,2.0,62,0.00,,,0.00,weatherlink.com 1.10,2013-06-27 01:05:00,
2013-06-26 20:20:00,86.4,72.0,29.92,SSE,157,0.0,2.0,63,0.00,,,0.00,weatherlink.com 1.10,2013-06-27 01:20:00,
2013-06-26 20:35:00,85.5,72.0,29.92,SSE,152,0.0,2.0,64,0.00,,,0.00,weatherlink.com 1.10,2013-06-27 01:35:00,
2013-06-26 20:50:00,84.9,71.0,29.93,SE,129,0.0,1.0,64,0.00,,,0.00,weatherlink.com 1.10,2013-06-27 01:50:00,
2013-06-26 21:05:00,84.3,71.0,29.93,SE,128,0.0,1.0,65,0.00,,,0.00,weatherlink.com 1.10,2013-06-27 02:05:00,
2013-06-26 21:20:00,83.7,71.0,29.93,SE,128,0.0,2.0,66,0.00,,,0.00,weatherlink.com 1.10,2013-06-27 02:20:00,
2013-06-26 21:35:00,83.1,71.0,29.94,SE,128,0.0,1.0,68,0.00,,,0.00,weatherlink.com 1.10,2013-06-27 02:35:00,
2013-06-26 21:50:00,82.6,72.0,29.95,SSE,159,0.0,3.0,70,0.00,,,0.00,weatherlink.com 1.10,2013-06-27 02:50:00,
2013-06-26 22:05:00,82.1,72.0,29.95,South,175,0.0,2.0,72,0.00,,,0.00,weatherlink.com 1.10,2013-06-27 03:05:00,
2013-06-26 22:20:00,81.4,72.0,29.96,SE,144,0.0,4.0,74,0.00,,,0.00,weatherlink.com 1.10,2013-06-27 03:20:00,
2013-06-26 22:35:00,80.8,72.0,29.97,SE,144,0.0,1.0,75,0.00,,,0.00,weatherlink.com 1.10,2013-06-27 03:35:00,
2013-06-26 22:50:00,80.1,72.0,29.97,SE,144,0.0,1.0,77,0.00,,,0.00,weatherlink.com 1.10,2013-06-27 03:50:00,
2013-06-26 23:05:00,79.6,72.0,29.98,SE,144,0.0,1.0,78,0.00,,,0.00,weatherlink.com 1.10,2013-06-27 04:05:00,
2013-06-26 23:20:00,79.1,72.0,29.98,SE,144,0.0,2.0,79,0.00,,,0.00,weatherlink.com 1.10,2013-06-27 04:20:00,
2013-06-26 23:35:00,78.7,72.0,29.98,SE,144,0.0,2.0,79,0.00,,,0.00,weatherlink.com 1.10,2013-06-27 04:35:00,
2013-06-26 23:50:00,78.3,72.0,29.98,SE,142,0.0,3.0,80,0.00,,,0.00,weatherlink.com 1.10,2013-06-27 04:50:00,